Time;durP1;ratioP1;P1;durP2;ratioP2;P2;SDS_P1;SDS_P2;PMS_P1;PMS_P2;Temp;Humidity;BMP_temperature;BMP_pressure;BME280_temperature;BME280_humidity;BME280_pressure;Samples;Min_cycle;Max_cycle;Signal;HPM_P1;HPM_P2
2021/07/23 00:00:00;;;;;;;14.07;7.35;;;15.40;99.90;;;;;;5007662;28;20075;-81
2021/07/23 00:02:26;;;;;;;13.43;6.90;;;15.40;99.90;;;;;;5016618;28;20026;-80
2021/07/23 00:04:52;;;;;;;13.50;7.45;;;15.30;99.90;;;;;;5016692;28;20397;-81
2021/07/23 00:07:17;;;;;;;13.07;7.57;;;15.30;99.90;;;;;;5034433;28;20480;-81
2021/07/23 00:09:43;;;;;;;16.45;7.20;;;15.40;99.90;;;;;;5009107;28;20022;-81
2021/07/23 00:12:09;;;;;;;16.02;8.05;;;15.40;99.90;;;;;;5014430;28;20032;-81
2021/07/23 00:14:35;;;;;;;11.27;6.78;;;15.30;99.90;;;;;;5014541;28;20040;-81
2021/07/23 00:17:00;;;;;;;17.65;7.68;;;15.30;99.90;;;;;;5014360;28;20117;-81
2021/07/23 00:19:26;;;;;;;13.50;7.32;;;15.40;99.90;;;;;;4996908;28;20550;-81
2021/07/23 00:21:51;;;;;;;12.45;6.65;;;15.40;99.90;;;;;;5016219;28;20032;-81
2021/07/23 00:24:17;;;;;;;16.17;6.90;;;15.30;99.90;;;;;;5032642;28;20037;-81
2021/07/23 00:26:48;;;;;;;12.13;7.72;;;15.30;99.90;;;;;;5016315;28;20108;-80
2021/07/23 00:29:14;;;;;;;15.15;7.55;;;15.20;99.90;;;;;;5034184;28;20025;-81
2021/07/23 00:31:39;;;;;;;17.58;6.85;;;15.20;99.90;;;;;;5017647;28;20026;-81
2021/07/23 00:34:05;;;;;;;19.92;8.00;;;15.30;99.90;;;;;;4996700;28;20498;-81
2021/07/23 00:36:30;;;;;;;14.93;6.85;;;15.30;99.90;;;;;;5014060;28;20026;-82
2021/07/23 00:38:56;;;;;;;17.15;6.38;;;15.30;99.90;;;;;;4996546;28;20034;-81
2021/07/23 00:41:21;;;;;;;13.52;7.03;;;15.30;99.90;;;;;;5024125;28;20036;-81
2021/07/23 00:43:47;;;;;;;11.82;6.60;;;15.30;99.90;;;;;;5033711;28;20056;-81
2021/07/23 00:46:13;;;;;;;13.18;6.40;;;15.30;99.90;;;;;;5033557;28;20112;-81
2021/07/23 00:48:38;;;;;;;18.15;6.40;;;15.30;99.90;;;;;;5033548;28;20094;-81
2021/07/23 00:51:04;;;;;;;13.52;6.93;;;15.20;99.90;;;;;;5028114;28;20397;-81
2021/07/23 00:53:29;;;;;;;13.90;6.45;;;15.20;99.90;;;;;;5013506;28;20025;-81
2021/07/23 00:55:58;;;;;;;17.95;6.22;;;15.20;99.90;;;;;;5013694;28;20026;-81
2021/07/23 00:58:25;;;;;;;10.05;6.20;;;15.20;99.90;;;;;;4996143;28;20029;-81
2021/07/23 01:00:54;;;;;;;14.25;6.78;;;15.20;99.90;;;;;;5014090;28;20025;-81
2021/07/23 01:03:21;;;;;;;13.88;5.35;;;15.20;99.90;;;;;;5015416;28;20036;-81
2021/07/23 01:05:50;;;;;;;11.57;5.50;;;15.20;99.90;;;;;;5015388;28;20493;-81
2021/07/23 01:08:16;;;;;;;11.07;4.95;;;15.20;99.90;;;;;;5033368;28;20033;-81
2021/07/23 01:10:41;;;;;;;15.52;6.53;;;15.20;99.90;;;;;;5033231;28;20021;-81
2021/07/23 01:13:07;;;;;;;8.50;5.38;;;15.30;99.90;;;;;;5016234;28;20549;-81
2021/07/23 01:15:33;;;;;;;15.35;6.38;;;15.30;99.90;;;;;;4995782;28;20432;-81
2021/07/23 01:17:59;;;;;;;10.65;5.38;;;15.20;99.90;;;;;;5013414;28;20568;-81
2021/07/23 01:20:26;;;;;;;17.60;6.00;;;15.20;99.90;;;;;;4995469;28;20060;-81
2021/07/23 01:22:54;;;;;;;12.63;5.90;;;15.10;99.90;;;;;;5024152;28;20032;-81
2021/07/23 01:25:21;;;;;;;10.65;6.45;;;15.20;99.90;;;;;;5031030;28;20037;-81
2021/07/23 01:27:51;;;;;;;12.25;6.60;;;15.10;99.90;;;;;;5015176;28;20036;-81
2021/07/23 01:30:21;;;;;;;14.35;7.22;;;15.10;99.90;;;;;;5032971;28;20049;-81
2021/07/23 01:32:47;;;;;;;15.30;7.20;;;15.10;99.90;;;;;;5024645;28;20036;-81
2021/07/23 01:35:13;;;;;;;14.98;7.20;;;15.20;99.90;;;;;;4995437;28;20397;-80
2021/07/23 01:37:44;;;;;;;13.90;7.82;;;15.20;99.90;;;;;;4995435;28;20599;-81
2021/07/23 01:40:10;;;;;;;15.43;7.65;;;15.20;99.90;;;;;;5012964;28;20140;-81
2021/07/23 01:42:36;;;;;;;14.35;8.32;;;15.10;99.90;;;;;;5015738;28;20026;-81
2021/07/23 01:45:03;;;;;;;13.40;7.18;;;15.20;99.90;;;;;;5014772;28;20026;-81
2021/07/23 01:47:29;;;;;;;16.85;8.10;;;15.20;99.90;;;;;;5032354;28;20084;-81
2021/07/23 01:49:54;;;;;;;17.10;8.43;;;15.10;99.90;;;;;;5014832;28;20023;-82
2021/07/23 01:52:20;;;;;;;17.63;9.07;;;15.10;99.90;;;;;;5032220;28;20025;-81
2021/07/23 01:54:46;;;;;;;11.98;7.75;;;15.10;99.90;;;;;;5006877;28;20033;-81
2021/07/23 01:57:11;;;;;;;16.30;8.27;;;15.10;99.90;;;;;;5032645;28;20030;-81
2021/07/23 01:59:38;;;;;;;16.73;8.10;;;15.10;99.90;;;;;;5032376;28;20690;-81
2021/07/23 02:02:03;;;;;;;17.67;9.00;;;15.10;99.90;;;;;;5032070;28;20034;-81
2021/07/23 02:04:29;;;;;;;12.05;7.93;;;15.10;99.90;;;;;;5018592;28;20116;-81
2021/07/23 02:06:55;;;;;;;15.90;9.27;;;15.10;99.90;;;;;;4994834;28;20033;-81
2021/07/23 02:09:20;;;;;;;21.63;8.88;;;15.00;99.90;;;;;;5012446;28;20481;-81
2021/07/23 02:11:46;;;;;;;15.80;9.02;;;15.00;99.90;;;;;;5012143;28;20018;-82
2021/07/23 02:14:13;;;;;;;16.70;8.68;;;15.00;99.90;;;;;;5001576;28;20021;-81
2021/07/23 02:16:38;;;;;;;17.48;9.55;;;15.10;99.90;;;;;;5031850;28;20038;-81
2021/07/23 02:19:06;;;;;;;16.60;9.88;;;15.10;99.90;;;;;;5032074;28;20029;-81
2021/07/23 02:21:35;;;;;;;20.17;9.43;;;15.10;99.90;;;;;;5031687;28;20474;-81
2021/07/23 02:24:01;;;;;;;15.60;9.13;;;15.00;99.90;;;;;;5010411;28;20026;-81
2021/07/23 02:26:27;;;;;;;14.40;8.45;;;15.10;99.90;;;;;;5012130;28;20036;-81
2021/07/23 02:28:53;;;;;;;13.85;8.45;;;15.10;99.90;;;;;;4995679;28;20029;-81
2021/07/23 02:31:18;;;;;;;16.08;7.40;;;15.10;99.90;;;;;;5024634;28;20113;-80
2021/07/23 02:33:45;;;;;;;20.48;7.68;;;15.00;99.90;;;;;;5014416;28;20084;-81
2021/07/23 02:36:12;;;;;;;14.13;7.57;;;15.10;99.90;;;;;;4994391;28;20490;-82
2021/07/23 02:38:38;;;;;;;15.25;6.80;;;15.20;99.90;;;;;;5012079;28;20110;-81
2021/07/23 02:41:04;;;;;;;9.93;6.05;;;15.20;99.90;;;;;;5027856;28;20065;-81
2021/07/23 02:43:30;;;;;;;15.90;6.20;;;15.10;99.90;;;;;;5018139;28;20088;-81
2021/07/23 02:45:56;;;;;;;8.82;5.70;;;15.10;99.90;;;;;;5011907;28;20061;-81
2021/07/23 02:48:22;;;;;;;10.57;6.03;;;15.10;99.90;;;;;;5011994;28;20055;-81
2021/07/23 02:50:47;;;;;;;11.43;6.00;;;15.10;99.90;;;;;;5022455;28;20036;-81
2021/07/23 02:53:13;;;;;;;8.13;5.43;;;15.10;99.90;;;;;;5013778;28;20022;-81
2021/07/23 02:55:38;;;;;;;10.85;4.90;;;15.10;99.90;;;;;;5031508;28;20081;-81
2021/07/23 02:58:04;;;;;;;11.60;5.70;;;15.10;99.90;;;;;;5013968;28;20026;-81
2021/07/23 03:00:30;;;;;;;8.32;5.15;;;15.10;99.90;;;;;;5025655;28;20022;-81
2021/07/23 03:02:55;;;;;;;10.63;4.75;;;15.10;99.90;;;;;;5011618;28;20131;-81
2021/07/23 03:05:21;;;;;;;10.52;5.68;;;15.00;99.90;;;;;;4994025;28;20034;-81
2021/07/23 03:07:53;;;;;;;7.85;5.18;;;15.00;99.90;;;;;;4994154;28;20387;-81
2021/07/23 03:10:19;;;;;;;16.73;6.05;;;15.00;99.90;;;;;;5012880;28;20022;-82
2021/07/23 03:12:44;;;;;;;13.63;5.85;;;15.10;99.90;;;;;;5030958;28;20047;-81
2021/07/23 03:15:11;;;;;;;9.55;5.82;;;15.10;99.90;;;;;;5031377;28;20021;-81
2021/07/23 03:17:37;;;;;;;10.93;6.40;;;15.00;99.90;;;;;;5013601;28;20493;-81
2021/07/23 03:20:03;;;;;;;10.23;5.50;;;15.00;99.90;;;;;;5031495;28;20048;-81
2021/07/23 03:22:29;;;;;;;12.23;6.50;;;15.00;99.90;;;;;;4997197;28;20124;-81
2021/07/23 03:24:55;;;;;;;10.77;6.07;;;15.00;99.90;;;;;;5011443;28;20048;-81
2021/07/23 03:27:21;;;;;;;9.80;5.00;;;15.00;99.90;;;;;;5011708;28;20068;-82
2021/07/23 03:29:47;;;;;;;11.95;6.60;;;15.00;99.90;;;;;;5011488;28;20034;-82
2021/07/23 03:32:13;;;;;;;9.65;6.15;;;15.00;99.90;;;;;;5022431;28;20105;-81
2021/07/23 03:34:39;;;;;;;12.10;5.85;;;15.10;99.90;;;;;;5031309;28;20041;-81
2021/07/23 03:37:04;;;;;;;10.05;5.47;;;15.00;99.90;;;;;;5013524;28;20026;-81
2021/07/23 03:39:30;;;;;;;13.85;5.63;;;15.00;99.90;;;;;;5031300;28;20025;-81
2021/07/23 03:41:55;;;;;;;10.65;5.53;;;15.00;99.90;;;;;;5024757;28;20501;-81
2021/07/23 03:44:21;;;;;;;24.42;6.13;;;15.00;99.90;;;;;;4996155;28;20040;-81
2021/07/23 03:46:46;;;;;;;13.18;5.75;;;15.00;99.90;;;;;;4997371;28;20445;-82
2021/07/23 03:49:12;;;;;;;9.98;4.65;;;15.00;99.90;;;;;;5015127;28;20017;-81
2021/07/23 03:51:37;;;;;;;12.75;6.00;;;15.00;99.90;;;;;;5009678;28;20029;-82
2021/07/23 03:54:03;;;;;;;9.68;5.68;;;15.00;99.90;;;;;;5034784;28;20021;-81
2021/07/23 03:56:29;;;;;;;7.95;5.03;;;15.00;99.90;;;;;;5034614;28;20103;-81
2021/07/23 03:58:55;;;;;;;14.20;5.32;;;15.00;99.90;;;;;;5016766;28;20482;-81
2021/07/23 04:01:20;;;;;;;13.98;5.38;;;15.00;99.90;;;;;;5008762;28;20036;-81
2021/07/23 04:03:46;;;;;;;9.48;4.82;;;15.10;99.90;;;;;;5016716;28;20044;-81
2021/07/23 04:06:12;;;;;;;11.77;5.85;;;15.00;99.90;;;;;;5034257;28;20029;-81
2021/07/23 04:08:39;;;;;;;13.15;5.97;;;15.10;99.90;;;;;;5034425;28;20030;-81
2021/07/23 04:11:05;;;;;;;9.38;5.60;;;15.10;99.90;;;;;;5034121;28;20017;-81
2021/07/23 04:13:30;;;;;;;11.00;5.22;;;15.10;99.90;;;;;;5034173;28;20444;-81
2021/07/23 04:15:56;;;;;;;18.00;5.97;;;15.10;99.90;;;;;;5016777;28;20026;-81
2021/07/23 04:18:22;;;;;;;11.68;5.75;;;15.10;99.90;;;;;;5014544;28;20033;-81
2021/07/23 04:20:47;;;;;;;10.48;5.45;;;15.10;99.90;;;;;;5014548;28;20034;-81
2021/07/23 04:23:13;;;;;;;11.88;5.30;;;15.10;99.90;;;;;;5014249;28;20029;-82
2021/07/23 04:25:38;;;;;;;7.53;4.85;;;15.10;99.90;;;;;;5024188;28;20440;-82
2021/07/23 04:28:06;;;;;;;8.02;4.40;;;15.10;99.90;;;;;;5034028;28;20426;-81
2021/07/23 04:30:32;;;;;;;9.93;5.18;;;15.10;99.90;;;;;;5034087;28;20099;-82
2021/07/23 04:32:58;;;;;;;8.55;5.80;;;15.10;99.90;;;;;;5033845;28;20021;-81
2021/07/23 04:35:23;;;;;;;10.18;5.10;;;15.20;99.90;;;;;;5026793;28;20044;-81
2021/07/23 04:37:49;;;;;;;10.68;5.03;;;15.20;99.90;;;;;;5014092;28;20490;-81
2021/07/23 04:40:14;;;;;;;7.60;4.20;;;15.30;99.90;;;;;;4996503;28;20537;-81
2021/07/23 04:42:40;;;;;;;5.72;3.95;;;15.30;99.90;;;;;;5013757;28;20025;-82
2021/07/23 04:45:06;;;;;;;7.07;4.10;;;15.30;99.90;;;;;;4997655;28;20022;-81
2021/07/23 04:47:32;;;;;;;7.13;4.35;;;15.30;99.90;;;;;;5015980;28;20021;-82
2021/07/23 04:49:57;;;;;;;6.85;4.28;;;15.30;99.90;;;;;;5033717;28;20040;-81
2021/07/23 04:52:23;;;;;;;7.53;4.25;;;15.30;99.90;;;;;;5015668;28;20025;-82
2021/07/23 04:54:49;;;;;;;9.93;5.38;;;15.40;99.90;;;;;;5015084;28;20083;-81
2021/07/23 04:57:17;;;;;;;6.10;4.57;;;15.40;99.90;;;;;;5016876;28;20026;-82
2021/07/23 04:59:44;;;;;;;9.48;4.22;;;15.40;99.90;;;;;;5013796;28;20018;-81
2021/07/23 05:02:09;;;;;;;10.27;4.55;;;15.40;99.90;;;;;;5013660;28;20022;-82
2021/07/23 05:04:38;;;;;;;10.13;4.70;;;15.40;99.90;;;;;;5013645;28;20483;-81
2021/07/23 05:07:04;;;;;;;6.43;4.35;;;15.30;99.90;;;;;;5007863;28;20486;-81
2021/07/23 05:09:29;;;;;;;6.80;4.15;;;15.30;99.90;;;;;;5033235;28;20036;-81
2021/07/23 05:11:55;;;;;;;6.25;4.00;;;15.40;99.90;;;;;;5032837;28;20021;-81
2021/07/23 05:14:21;;;;;;;8.13;4.10;;;15.50;99.90;;;;;;5033239;28;20029;-81
2021/07/23 05:16:47;;;;;;;8.23;3.45;;;15.50;99.90;;;;;;5032345;28;20030;-81
2021/07/23 05:19:15;;;;;;;7.20;4.22;;;15.50;99.90;;;;;;5033210;28;20397;-82
2021/07/23 05:21:41;;;;;;;14.02;4.90;;;15.60;99.90;;;;;;5032909;28;20437;-81
2021/07/23 05:24:07;;;;;;;11.15;3.97;;;15.60;99.90;;;;;;5033110;28;20021;-83
2021/07/23 05:26:37;;;;;;;12.15;5.13;;;15.60;99.90;;;;;;5030584;28;20507;-83
2021/07/23 05:29:03;;;;;;;6.07;4.20;;;15.60;99.90;;;;;;4995689;28;20017;-84
2021/07/23 05:31:29;;;;;;;10.45;4.38;;;15.70;99.90;;;;;;4996118;28;20048;-82
2021/07/23 05:33:57;;;;;;;3.65;3.13;;;15.70;99.90;;;;;;5021206;28;20072;-83
2021/07/23 05:36:24;;;;;;;9.45;3.70;;;15.70;99.90;;;;;;5013016;28;20061;-83
2021/07/23 05:38:49;;;;;;;9.60;3.75;;;15.70;99.90;;;;;;5013107;28;20084;-84
2021/07/23 05:41:15;;;;;;;8.02;4.38;;;15.80;99.90;;;;;;5012804;28;20026;-84
2021/07/23 05:43:40;;;;;;;6.82;3.80;;;15.90;99.90;;;;;;5016283;28;20021;-84
2021/07/23 05:46:06;;;;;;;6.72;3.42;;;16.00;99.90;;;;;;5032520;28;20478;-84
2021/07/23 05:48:35;;;;;;;6.57;4.05;;;16.00;99.90;;;;;;5032504;28;20104;-84
2021/07/23 05:51:02;;;;;;;7.95;3.58;;;16.10;99.90;;;;;;5032473;28;20100;-83
2021/07/23 05:53:28;;;;;;;8.85;3.72;;;16.10;99.90;;;;;;5014627;28;20025;-84
2021/07/23 05:55:53;;;;;;;7.07;3.40;;;16.10;99.90;;;;;;5013083;28;20034;-83
2021/07/23 05:58:19;;;;;;;4.85;3.40;;;16.10;99.90;;;;;;5012628;28;20164;-81
2021/07/23 06:00:44;;;;;;;7.22;3.25;;;16.10;99.90;;;;;;5013140;28;20097;-82
2021/07/23 06:03:10;;;;;;;8.32;3.17;;;16.20;99.90;;;;;;5031498;28;20105;-82
2021/07/23 06:05:35;;;;;;;8.43;3.50;;;16.20;99.90;;;;;;5027105;28;20030;-81
2021/07/23 06:08:01;;;;;;;7.07;3.90;;;16.30;99.90;;;;;;5011394;28;20022;-82
2021/07/23 06:10:27;;;;;;;5.35;3.10;;;16.30;99.90;;;;;;5012253;28;20022;-82
2021/07/23 06:12:53;;;;;;;5.78;3.83;;;16.30;99.90;;;;;;4994252;28;20144;-83
2021/07/23 06:15:18;;;;;;;8.57;3.65;;;16.50;99.90;;;;;;5020202;28;20515;-82
2021/07/23 06:17:44;;;;;;;8.57;4.18;;;16.40;99.90;;;;;;5031841;28;20029;-82
2021/07/23 06:20:10;;;;;;;7.63;3.40;;;16.50;99.90;;;;;;5014209;28;20032;-82
2021/07/23 06:22:35;;;;;;;6.28;3.28;;;16.40;99.90;;;;;;5031737;28;20052;-84
2021/07/23 06:25:01;;;;;;;7.28;3.25;;;16.40;99.90;;;;;;5031310;28;20059;-85
2021/07/23 06:27:26;;;;;;;7.93;3.42;;;16.30;99.90;;;;;;5029762;28;20041;-81
2021/07/23 06:29:56;;;;;;;8.43;3.92;;;16.50;99.90;;;;;;5013835;28;20029;-81
2021/07/23 06:32:23;;;;;;;11.57;4.30;;;16.50;99.90;;;;;;5013813;28;20026;-80
2021/07/23 06:34:48;;;;;;;6.07;3.63;;;16.50;99.90;;;;;;5031669;28;20108;-81
2021/07/23 06:37:20;;;;;;;8.60;3.65;;;16.60;99.90;;;;;;5013799;28;20117;-85
2021/07/23 06:39:46;;;;;;;6.28;3.45;;;16.60;99.90;;;;;;4994167;28;20030;-83
2021/07/23 06:42:12;;;;;;;7.40;4.15;;;16.60;99.90;;;;;;5020677;28;20516;-80
2021/07/23 06:44:37;;;;;;;8.48;3.80;;;16.70;99.90;;;;;;5028563;28;20031;-80
2021/07/23 06:47:03;;;;;;;7.07;4.28;;;16.70;99.90;;;;;;5003302;28;20025;-80
2021/07/23 06:49:29;;;;;;;7.57;3.47;;;16.80;99.90;;;;;;5011794;28;20034;-82
2021/07/23 06:51:54;;;;;;;9.93;3.80;;;16.80;99.90;;;;;;5011580;28;20014;-81
2021/07/23 06:54:20;;;;;;;6.55;4.18;;;17.00;99.90;;;;;;5003188;28;20064;-82
2021/07/23 06:56:45;;;;;;;6.85;4.20;;;17.00;99.90;;;;;;5029259;28;20113;-82
2021/07/23 06:59:11;;;;;;;6.38;4.45;;;17.00;99.90;;;;;;5031412;28;20028;-82
2021/07/23 07:01:36;;;;;;;7.45;4.82;;;17.10;99.90;;;;;;5011872;28;20029;-81
2021/07/23 07:04:04;;;;;;;13.65;4.18;;;17.20;99.90;;;;;;5029774;28;20018;-81
2021/07/23 07:06:30;;;;;;;5.20;4.10;;;17.20;99.90;;;;;;5031210;28;20029;-82
2021/07/23 07:08:55;;;;;;;6.90;4.40;;;17.10;99.90;;;;;;5031321;28;20071;-81
2021/07/23 07:11:21;;;;;;;9.75;4.00;;;17.20;99.90;;;;;;5030729;28;20026;-82
2021/07/23 07:13:46;;;;;;;8.68;4.25;;;17.10;99.90;;;;;;5031364;28;20385;-81
2021/07/23 07:16:12;;;;;;;8.65;5.32;;;17.10;99.90;;;;;;5022278;28;20033;-81
2021/07/23 07:18:37;;;;;;;9.13;5.13;;;17.10;99.90;;;;;;5013334;28;20033;-81
2021/07/23 07:21:05;;;;;;;6.78;4.75;;;17.10;99.90;;;;;;5017555;28;20033;-81
2021/07/23 07:23:31;;;;;;;8.82;4.80;;;17.20;99.90;;;;;;5006536;28;20155;-81
2021/07/23 07:25:56;;;;;;;10.13;5.30;;;17.30;99.90;;;;;;5045708;28;20120;-80
2021/07/23 07:28:22;;;;;;;8.88;5.25;;;17.30;99.90;;;;;;5032512;28;20021;-80
2021/07/23 07:30:48;;;;;;;10.90;4.70;;;17.30;99.90;;;;;;5050250;28;20033;-81
2021/07/23 07:33:14;;;;;;;8.43;5.40;;;17.40;99.90;;;;;;5041051;28;20026;-81
2021/07/23 07:35:43;;;;;;;10.48;4.45;;;17.60;99.90;;;;;;5027423;28;20026;-81
2021/07/23 07:38:09;;;;;;;8.95;5.00;;;17.60;99.90;;;;;;5032175;28;20021;-86
2021/07/23 07:40:34;;;;;;;10.80;5.10;;;17.60;99.90;;;;;;5023139;28;20091;-83
2021/07/23 07:43:00;;;;;;;12.10;5.97;;;17.80;99.90;;;;;;5040141;28;20504;-87
2021/07/23 07:45:25;;;;;;;13.82;5.57;;;17.70;99.90;;;;;;5046956;28;20515;-81
2021/07/23 07:47:52;;;;;;;13.65;5.60;;;17.70;99.90;;;;;;5037507;28;20035;-82
2021/07/23 07:50:18;;;;;;;9.80;4.40;;;17.70;99.90;;;;;;5048150;28;20040;-81
2021/07/23 07:52:43;;;;;;;10.82;5.18;;;17.70;99.90;;;;;;5040436;28;20103;-81
2021/07/23 07:55:10;;;;;;;9.02;4.70;;;17.80;99.90;;;;;;5022087;28;20033;-82
2021/07/23 07:57:35;;;;;;;11.77;5.20;;;17.90;99.90;;;;;;5036316;28;20040;-82
2021/07/23 08:00:01;;;;;;;8.93;4.88;;;17.90;99.90;;;;;;5032928;28;20045;-82
2021/07/23 08:02:26;;;;;;;11.48;6.72;;;18.00;99.90;;;;;;5031855;28;20048;-82
2021/07/23 08:04:52;;;;;;;14.90;5.78;;;18.00;99.90;;;;;;5013484;28;20057;-81
2021/07/23 08:07:21;;;;;;;10.75;6.05;;;17.70;99.90;;;;;;5034292;28;20083;-82
2021/07/23 08:09:52;;;;;;;9.10;5.40;;;17.70;99.90;;;;;;5031601;28;20017;-81
2021/07/23 08:12:19;;;;;;;14.18;6.28;;;17.70;99.90;;;;;;5039402;28;20036;-82
2021/07/23 08:14:44;;;;;;;8.05;5.38;;;17.80;99.90;;;;;;5047476;28;20108;-82
2021/07/23 08:17:10;;;;;;;10.75;6.30;;;17.80;99.90;;;;;;5037137;28;20028;-82
2021/07/23 08:19:37;;;;;;;13.70;6.20;;;17.80;99.90;;;;;;5016116;28;20041;-82
2021/07/23 08:22:04;;;;;;;14.02;5.75;;;17.80;99.90;;;;;;5047943;28;20044;-81
2021/07/23 08:24:29;;;;;;;10.52;6.13;;;17.90;99.90;;;;;;5039820;28;20393;-81
2021/07/23 08:26:55;;;;;;;8.40;5.68;;;18.00;99.90;;;;;;5024819;28;20023;-81
2021/07/23 08:29:20;;;;;;;11.00;6.22;;;18.10;99.90;;;;;;5028525;28;20037;-81
2021/07/23 08:31:46;;;;;;;13.32;6.63;;;18.20;99.90;;;;;;5014302;28;20025;-81
2021/07/23 08:34:11;;;;;;;14.23;7.07;;;17.90;99.90;;;;;;5038693;28;20027;-82
2021/07/23 08:36:37;;;;;;;12.18;6.28;;;18.00;99.90;;;;;;5034982;28;20029;-81
2021/07/23 08:39:03;;;;;;;13.27;6.80;;;18.10;99.90;;;;;;5034757;28;20151;-82
2021/07/23 08:41:29;;;;;;;12.18;6.35;;;18.10;99.90;;;;;;5017586;28;20597;-82
2021/07/23 08:43:55;;;;;;;9.63;5.85;;;18.20;99.90;;;;;;5044093;28;20048;-81
2021/07/23 08:46:21;;;;;;;8.45;5.25;;;18.40;99.90;;;;;;5035267;28;20064;-83
2021/07/23 08:48:46;;;;;;;10.85;6.50;;;18.50;99.90;;;;;;5039826;28;20045;-83
2021/07/23 08:51:20;;;;;;;13.50;6.63;;;18.60;99.90;;;;;;5040549;28;20917;-81
2021/07/23 08:53:46;;;;;;;8.20;6.00;;;18.50;99.90;;;;;;5026831;28;20442;-84
2021/07/23 08:56:12;;;;;;;12.65;6.63;;;18.50;99.90;;;;;;5038506;28;20052;-86
2021/07/23 08:58:38;;;;;;;10.98;6.22;;;18.50;99.90;;;;;;5039746;28;20401;-83
2021/07/23 09:01:04;;;;;;;14.23;5.53;;;18.70;99.90;;;;;;5026617;28;20037;-87
2021/07/23 09:03:29;;;;;;;10.25;6.78;;;18.90;99.90;;;;;;5029983;28;20033;-84
2021/07/23 09:05:56;;;;;;;9.00;6.05;;;18.90;99.90;;;;;;5046082;28;20473;-85
2021/07/23 09:08:22;;;;;;;10.32;6.60;;;18.80;99.90;;;;;;5023211;28;20052;-82
2021/07/23 09:11:05;;;;;;;10.90;6.65;;;19.00;99.90;;;;;;5041163;28;20057;-84
2021/07/23 09:13:31;;;;;;;10.70;7.18;;;19.00;99.90;;;;;;5014662;28;20024;-84
2021/07/23 09:16:00;;;;;;;10.82;6.57;;;18.90;99.90;;;;;;5019960;28;20680;-84
2021/07/23 09:18:35;;;;;;;9.73;6.38;;;18.80;99.90;;;;;;5036516;28;20470;-84
2021/07/23 09:21:04;;;;;;;10.60;6.20;;;18.70;99.90;;;;;;5028398;28;20037;-83
2021/07/23 09:23:32;;;;;;;10.70;7.32;;;18.60;99.90;;;;;;5028237;28;20021;-82
2021/07/23 09:26:11;;;;;;;12.13;7.32;;;18.50;99.90;;;;;;5021780;28;20051;-83
2021/07/23 09:28:46;;;;;;;13.20;6.38;;;18.60;99.90;;;;;;5029840;28;20047;-83
2021/07/23 09:31:28;;;;;;;13.80;5.78;;;18.60;99.90;;;;;;5023931;28;20028;-82
2021/07/23 09:33:58;;;;;;;11.80;6.95;;;18.60;99.90;;;;;;5018277;28;20036;-83
2021/07/23 09:36:24;;;;;;;11.23;6.60;;;18.60;99.90;;;;;;5016159;28;20041;-83
2021/07/23 09:38:50;;;;;;;10.57;5.65;;;18.60;99.90;;;;;;5028898;28;20029;-84
2021/07/23 09:41:21;;;;;;;16.85;6.55;;;18.70;99.90;;;;;;5029938;28;20026;-82
2021/07/23 09:44:02;;;;;;;13.45;6.47;;;18.80;99.90;;;;;;5028645;28;20025;-82
2021/07/23 09:46:35;;;;;;;15.57;6.85;;;19.00;99.90;;;;;;5037831;28;20025;-82
2021/07/23 09:49:18;;;;;;;13.50;7.57;;;18.90;99.90;;;;;;5016759;28;20022;-81
2021/07/23 09:51:44;;;;;;;11.73;7.17;;;18.80;99.90;;;;;;5039833;28;20025;-82
2021/07/23 09:54:10;;;;;;;11.93;6.20;;;18.80;99.90;;;;;;5036069;28;20550;-84
2021/07/23 09:56:35;;;;;;;20.88;8.18;;;18.90;99.90;;;;;;5015174;28;20039;-82
2021/07/23 09:59:06;;;;;;;10.23;6.60;;;19.10;99.90;;;;;;5025649;28;20095;-83
2021/07/23 10:01:38;;;;;;;15.05;6.70;;;19.20;99.90;;;;;;5020404;28;20044;-82
2021/07/23 10:04:21;;;;;;;10.48;6.00;;;19.20;99.90;;;;;;5025966;28;20041;-81
2021/07/23 10:07:00;;;;;;;9.90;5.65;;;19.30;99.90;;;;;;5010972;28;20091;-83
2021/07/23 10:09:29;;;;;;;11.45;6.10;;;19.30;99.90;;;;;;5021263;28;20462;-83
2021/07/23 10:11:56;;;;;;;10.32;6.07;;;19.30;99.90;;;;;;5029095;28;20033;-81
2021/07/23 10:14:26;;;;;;;10.65;6.18;;;19.20;99.90;;;;;;5044523;28;20032;-81
2021/07/23 10:16:52;;;;;;;11.93;6.28;;;19.10;99.90;;;;;;5042554;28;20061;-81
2021/07/23 10:19:22;;;;;;;9.00;5.35;;;18.90;99.90;;;;;;5035146;28;20064;-80
2021/07/23 10:21:47;;;;;;;7.85;4.90;;;18.80;99.90;;;;;;5033353;28;20079;-80
2021/07/23 10:24:16;;;;;;;9.90;5.80;;;18.80;99.90;;;;;;5039536;28;20432;-80
2021/07/23 10:26:42;;;;;;;8.50;5.75;;;18.60;99.90;;;;;;5034003;28;20021;-82
2021/07/23 10:29:09;;;;;;;13.82;7.18;;;18.80;99.90;;;;;;5042821;28;20031;-80
2021/07/23 10:31:42;;;;;;;11.80;6.53;;;18.70;99.90;;;;;;5027621;28;20530;-82
2021/07/23 10:34:10;;;;;;;8.98;6.30;;;18.80;99.90;;;;;;5043198;28;20026;-80
2021/07/23 10:36:39;;;;;;;16.65;6.68;;;18.90;99.90;;;;;;5030374;28;20025;-80
2021/07/23 10:39:04;;;;;;;12.52;6.63;;;19.00;99.90;;;;;;5047874;28;20104;-80
2021/07/23 10:41:34;;;;;;;12.43;6.80;;;19.10;99.90;;;;;;5021094;28;20544;-82
2021/07/23 10:44:00;;;;;;;11.07;6.55;;;19.00;99.90;;;;;;5031110;28;20060;-81
2021/07/23 10:46:44;;;;;;;11.48;6.55;;;19.10;99.90;;;;;;5043592;28;20033;-81
2021/07/23 10:49:10;;;;;;;10.68;5.93;;;19.00;99.90;;;;;;5039166;28;20026;-80
2021/07/23 10:51:58;;;;;;;9.07;5.63;;;19.10;99.90;;;;;;5036848;28;20030;-80
2021/07/23 10:54:26;;;;;;;9.32;6.30;;;19.30;99.90;;;;;;5037032;28;20024;-80
2021/07/23 10:57:00;;;;;;;12.32;5.68;;;19.30;99.90;;;;;;5037594;28;20021;-79
2021/07/23 10:59:38;;;;;;;8.80;5.55;;;19.30;99.90;;;;;;5036060;28;20021;-81
2021/07/23 11:02:24;;;;;;;9.40;5.20;;;19.30;99.90;;;;;;5042265;28;20025;-82
2021/07/23 11:04:52;;;;;;;11.40;6.47;;;19.30;99.90;;;;;;5002119;28;20051;-80
2021/07/23 11:07:25;;;;;;;10.70;5.60;;;19.30;99.90;;;;;;5050117;28;20560;-80
2021/07/23 11:09:50;;;;;;;17.52;6.35;;;19.30;99.90;;;;;;5045533;28;20136;-80
2021/07/23 11:12:18;;;;;;;12.05;5.88;;;19.50;99.90;;;;;;5021855;28;20444;-80
2021/07/23 11:15:00;;;;;;;9.80;6.22;;;19.40;99.90;;;;;;5038817;28;20505;-81
2021/07/23 11:17:27;;;;;;;8.32;5.90;;;19.40;99.90;;;;;;5019907;28;20022;-80
2021/07/23 11:20:02;;;;;;;10.55;5.43;;;19.50;99.90;;;;;;5051928;28;20469;-81
2021/07/23 11:22:32;;;;;;;12.75;6.40;;;19.60;99.90;;;;;;5044821;28;20021;-80
2021/07/23 11:25:03;;;;;;;14.60;5.78;;;19.60;99.90;;;;;;5016800;28;20064;-85
2021/07/23 11:27:30;;;;;;;10.88;6.45;;;19.70;99.90;;;;;;5036312;28;20032;-85
2021/07/23 11:29:57;;;;;;;6.38;4.65;;;19.90;99.90;;;;;;5052339;28;20031;-85
2021/07/23 11:32:23;;;;;;;16.70;7.50;;;20.20;99.90;;;;;;5024962;28;20440;-84
2021/07/23 11:35:04;;;;;;;8.93;4.93;;;20.30;99.90;;;;;;5029112;28;20025;-82
2021/07/23 11:37:30;;;;;;;13.50;6.30;;;20.30;99.90;;;;;;5018059;28;20026;-82
2021/07/23 11:40:00;;;;;;;8.55;5.65;;;20.40;99.90;;;;;;5017866;28;20037;-83
2021/07/23 11:42:27;;;;;;;10.15;5.80;;;20.30;99.90;;;;;;5017737;28;20439;-82
2021/07/23 11:44:55;;;;;;;12.88;5.05;;;20.40;99.90;;;;;;5025206;28;20092;-82
2021/07/23 11:47:31;;;;;;;13.02;5.57;;;20.60;99.90;;;;;;5019953;28;20070;-83
2021/07/23 11:49:58;;;;;;;7.60;5.45;;;20.70;99.90;;;;;;5019886;28;20436;-82
2021/07/23 11:52:24;;;;;;;10.75;5.90;;;20.80;99.90;;;;;;5037608;28;20470;-82
2021/07/23 11:54:59;;;;;;;8.70;6.05;;;20.90;99.90;;;;;;5019482;28;20037;-83
2021/07/23 11:57:24;;;;;;;7.70;5.13;;;21.10;99.90;;;;;;5019887;28;20032;-83
2021/07/23 11:59:50;;;;;;;8.93;5.13;;;21.10;99.90;;;;;;5019817;28;20025;-82
2021/07/23 12:02:16;;;;;;;11.10;5.55;;;21.00;99.90;;;;;;5037463;28;20497;-82
2021/07/23 12:04:41;;;;;;;11.88;4.78;;;20.90;99.90;;;;;;5005049;28;20030;-83
2021/07/23 12:07:08;;;;;;;10.05;4.70;;;21.00;99.90;;;;;;5014756;28;20029;-83
2021/07/23 12:09:34;;;;;;;7.85;5.13;;;20.80;99.90;;;;;;5014701;28;20033;-83
2021/07/23 12:12:01;;;;;;;11.52;5.65;;;20.70;99.90;;;;;;4996427;28;20639;-83
2021/07/23 12:14:26;;;;;;;9.13;5.30;;;20.60;99.90;;;;;;5022800;28;20045;-84
2021/07/23 12:16:53;;;;;;;8.68;5.30;;;20.30;99.90;;;;;;5016566;28;20037;-81
2021/07/23 12:19:19;;;;;;;9.15;5.18;;;20.40;99.90;;;;;;5034390;28;20037;-82
2021/07/23 12:21:45;;;;;;;9.20;5.93;;;20.60;99.90;;;;;;5034093;28;20109;-82
2021/07/23 12:24:11;;;;;;;9.27;5.10;;;20.80;99.90;;;;;;5012614;28;20025;-81
2021/07/23 12:26:41;;;;;;;11.40;5.50;;;20.80;99.90;;;;;;5014503;28;20033;-82
2021/07/23 12:29:15;;;;;;;11.57;5.20;;;20.60;99.90;;;;;;5015035;28;20026;-82
2021/07/23 12:31:41;;;;;;;9.68;5.07;;;20.40;99.90;;;;;;5014176;28;20049;-82
2021/07/23 12:34:11;;;;;;;6.22;4.75;;;20.20;99.90;;;;;;5014118;28;20022;-83
2021/07/23 12:36:41;;;;;;;8.38;5.53;;;20.40;99.90;;;;;;5032977;28;20112;-83
2021/07/23 12:39:07;;;;;;;8.75;5.40;;;20.60;99.90;;;;;;5016336;28;20390;-82